sensor_id;sensor_type;location;lat;lon;timestamp;P1;durP1;ratioP1;P2;durP2;ratioP2
29688;SDS011;16600;47.444;8.334;2023-06-14T00:00:52;5.18;;;4.03;;
29688;SDS011;16600;47.444;8.334;2023-06-14T00:03:19;3.50;;;3.20;;
29688;SDS011;16600;47.444;8.334;2023-06-14T00:05:47;5.60;;;4.18;;
29688;SDS011;16600;47.444;8.334;2023-06-14T00:08:16;5.45;;;3.53;;
29688;SDS011;16600;47.444;8.334;2023-06-14T00:10:44;6.45;;;3.60;;
29688;SDS011;16600;47.444;8.334;2023-06-14T00:13:10;5.55;;;3.53;;
29688;SDS011;16600;47.444;8.334;2023-06-14T00:15:39;4.03;;;3.53;;
29688;SDS011;16600;47.444;8.334;2023-06-14T00:18:07;4.18;;;3.63;;
29688;SDS011;16600;47.444;8.334;2023-06-14T00:20:36;6.22;;;4.00;;
29688;SDS011;16600;47.444;8.334;2023-06-14T00:23:07;4.43;;;4.00;;
29688;SDS011;16600;47.444;8.334;2023-06-14T00:25:33;13.63;;;3.78;;
29688;SDS011;16600;47.444;8.334;2023-06-14T00:28:00;6.05;;;3.70;;
29688;SDS011;16600;47.444;8.334;2023-06-14T00:30:31;4.15;;;3.75;;
29688;SDS011;16600;47.444;8.334;2023-06-14T00:32:58;4.35;;;3.70;;
29688;SDS011;16600;47.444;8.334;2023-06-14T00:35:24;5.40;;;3.88;;
29688;SDS011;16600;47.444;8.334;2023-06-14T00:37:51;4.55;;;3.92;;
29688;SDS011;16600;47.444;8.334;2023-06-14T00:40:28;10.50;;;4.05;;
29688;SDS011;16600;47.444;8.334;2023-06-14T00:42:55;8.80;;;4.03;;
29688;SDS011;16600;47.444;8.334;2023-06-14T00:45:24;5.97;;;4.25;;
29688;SDS011;16600;47.444;8.334;2023-06-14T00:47:53;4.38;;;3.90;;
29688;SDS011;16600;47.444;8.334;2023-06-14T00:50:23;6.68;;;4.53;;
29688;SDS011;16600;47.444;8.334;2023-06-14T00:52:49;5.35;;;3.78;;
29688;SDS011;16600;47.444;8.334;2023-06-14T00:55:18;4.88;;;4.03;;
29688;SDS011;16600;47.444;8.334;2023-06-14T00:57:44;6.53;;;4.25;;
29688;SDS011;16600;47.444;8.334;2023-06-14T01:00:15;8.18;;;4.60;;
29688;SDS011;16600;47.444;8.334;2023-06-14T01:02:44;5.22;;;4.15;;
29688;SDS011;16600;47.444;8.334;2023-06-14T01:05:10;10.95;;;4.82;;
29688;SDS011;16600;47.444;8.334;2023-06-14T01:10:29;9.23;;;4.57;;
29688;SDS011;16600;47.444;8.334;2023-06-14T01:15:43;6.38;;;4.45;;
29688;SDS011;16600;47.444;8.334;2023-06-14T01:18:09;6.65;;;4.35;;
29688;SDS011;16600;47.444;8.334;2023-06-14T01:20:42;5.05;;;4.38;;
29688;SDS011;16600;47.444;8.334;2023-06-14T01:23:10;5.00;;;4.32;;
29688;SDS011;16600;47.444;8.334;2023-06-14T01:25:37;4.20;;;3.70;;
29688;SDS011;16600;47.444;8.334;2023-06-14T01:28:05;5.97;;;4.40;;
29688;SDS011;16600;47.444;8.334;2023-06-14T01:30:41;5.30;;;4.03;;
29688;SDS011;16600;47.444;8.334;2023-06-14T01:33:14;5.38;;;4.25;;
29688;SDS011;16600;47.444;8.334;2023-06-14T01:35:43;7.03;;;4.90;;
29688;SDS011;16600;47.444;8.334;2023-06-14T01:38:09;10.25;;;4.40;;
29688;SDS011;16600;47.444;8.334;2023-06-14T01:40:34;4.78;;;3.92;;
29688;SDS011;16600;47.444;8.334;2023-06-14T01:43:00;4.68;;;3.83;;
29688;SDS011;16600;47.444;8.334;2023-06-14T01:45:28;5.75;;;4.15;;
29688;SDS011;16600;47.444;8.334;2023-06-14T01:47:56;6.88;;;4.53;;
29688;SDS011;16600;47.444;8.334;2023-06-14T01:50:22;5.03;;;3.80;;
29688;SDS011;16600;47.444;8.334;2023-06-14T01:52:47;7.53;;;4.10;;
29688;SDS011;16600;47.444;8.334;2023-06-14T01:55:13;6.25;;;4.97;;
29688;SDS011;16600;47.444;8.334;2023-06-14T01:57:38;5.13;;;4.10;;
29688;SDS011;16600;47.444;8.334;2023-06-14T02:02:38;6.00;;;4.68;;
29688;SDS011;16600;47.444;8.334;2023-06-14T02:05:04;5.95;;;3.97;;
29688;SDS011;16600;47.444;8.334;2023-06-14T02:07:30;7.97;;;3.97;;
29688;SDS011;16600;47.444;8.334;2023-06-14T02:09:55;7.07;;;4.28;;
29688;SDS011;16600;47.444;8.334;2023-06-14T02:12:22;5.10;;;4.05;;
29688;SDS011;16600;47.444;8.334;2023-06-14T02:14:47;5.50;;;3.95;;
29688;SDS011;16600;47.444;8.334;2023-06-14T02:17:14;5.75;;;4.35;;
29688;SDS011;16600;47.444;8.334;2023-06-14T02:19:40;4.55;;;3.85;;
29688;SDS011;16600;47.444;8.334;2023-06-14T02:22:05;5.05;;;3.92;;
29688;SDS011;16600;47.444;8.334;2023-06-14T02:24:33;5.25;;;3.92;;
29688;SDS011;16600;47.444;8.334;2023-06-14T02:26:59;7.43;;;3.67;;
29688;SDS011;16600;47.444;8.334;2023-06-14T02:29:25;7.80;;;4.78;;
29688;SDS011;16600;47.444;8.334;2023-06-14T02:31:50;5.07;;;3.60;;
29688;SDS011;16600;47.444;8.334;2023-06-14T02:34:19;4.53;;;4.07;;
29688;SDS011;16600;47.444;8.334;2023-06-14T02:36:47;10.27;;;4.07;;
29688;SDS011;16600;47.444;8.334;2023-06-14T02:39:13;6.07;;;4.18;;
29688;SDS011;16600;47.444;8.334;2023-06-14T02:41:42;5.82;;;4.22;;
29688;SDS011;16600;47.444;8.334;2023-06-14T02:44:09;8.25;;;4.28;;
29688;SDS011;16600;47.444;8.334;2023-06-14T02:46:37;7.25;;;4.82;;
29688;SDS011;16600;47.444;8.334;2023-06-14T02:49:02;15.52;;;4.28;;
29688;SDS011;16600;47.444;8.334;2023-06-14T02:53:53;6.03;;;3.90;;
29688;SDS011;16600;47.444;8.334;2023-06-14T02:56:19;5.70;;;4.60;;
29688;SDS011;16600;47.444;8.334;2023-06-14T02:58:45;4.55;;;4.15;;
29688;SDS011;16600;47.444;8.334;2023-06-14T03:01:11;4.85;;;4.35;;
29688;SDS011;16600;47.444;8.334;2023-06-14T03:03:38;8.07;;;3.92;;
29688;SDS011;16600;47.444;8.334;2023-06-14T03:06:04;5.50;;;4.30;;
29688;SDS011;16600;47.444;8.334;2023-06-14T03:08:32;5.95;;;3.97;;
29688;SDS011;16600;47.444;8.334;2023-06-14T03:11:06;5.07;;;4.10;;
29688;SDS011;16600;47.444;8.334;2023-06-14T03:13:34;6.43;;;3.92;;
29688;SDS011;16600;47.444;8.334;2023-06-14T03:16:00;5.15;;;4.35;;
29688;SDS011;16600;47.444;8.334;2023-06-14T03:18:32;4.60;;;4.15;;
29688;SDS011;16600;47.444;8.334;2023-06-14T03:21:02;6.40;;;4.60;;
29688;SDS011;16600;47.444;8.334;2023-06-14T03:23:28;6.50;;;4.15;;
29688;SDS011;16600;47.444;8.334;2023-06-14T03:25:54;6.53;;;4.05;;
29688;SDS011;16600;47.444;8.334;2023-06-14T03:28:21;12.43;;;4.35;;
29688;SDS011;16600;47.444;8.334;2023-06-14T03:30:46;7.47;;;5.00;;
29688;SDS011;16600;47.444;8.334;2023-06-14T03:35:39;5.53;;;4.95;;
29688;SDS011;16600;47.444;8.334;2023-06-14T03:38:05;6.25;;;4.90;;
29688;SDS011;16600;47.444;8.334;2023-06-14T03:40:30;6.60;;;4.95;;
29688;SDS011;16600;47.444;8.334;2023-06-14T03:43:01;5.32;;;4.05;;
29688;SDS011;16600;47.444;8.334;2023-06-14T03:45:27;7.95;;;4.25;;
29688;SDS011;16600;47.444;8.334;2023-06-14T03:50:18;9.05;;;5.07;;
29688;SDS011;16600;47.444;8.334;2023-06-14T03:52:44;6.40;;;4.10;;
29688;SDS011;16600;47.444;8.334;2023-06-14T03:55:10;5.65;;;4.75;;
29688;SDS011;16600;47.444;8.334;2023-06-14T03:57:39;7.68;;;4.93;;
29688;SDS011;16600;47.444;8.334;2023-06-14T04:03:03;10.77;;;5.07;;
29688;SDS011;16600;47.444;8.334;2023-06-14T04:05:31;8.48;;;5.15;;
29688;SDS011;16600;47.444;8.334;2023-06-14T04:07:57;4.68;;;4.20;;
29688;SDS011;16600;47.444;8.334;2023-06-14T04:10:24;9.30;;;5.35;;
29688;SDS011;16600;47.444;8.334;2023-06-14T04:12:49;7.68;;;4.60;;
29688;SDS011;16600;47.444;8.334;2023-06-14T04:15:17;4.93;;;4.50;;
29688;SDS011;16600;47.444;8.334;2023-06-14T04:17:43;6.43;;;4.63;;
29688;SDS011;16600;47.444;8.334;2023-06-14T04:20:09;8.90;;;5.82;;
29688;SDS011;16600;47.444;8.334;2023-06-14T04:22:35;6.32;;;4.85;;
29688;SDS011;16600;47.444;8.334;2023-06-14T04:25:02;6.63;;;4.97;;
29688;SDS011;16600;47.444;8.334;2023-06-14T04:27:29;4.53;;;4.13;;
29688;SDS011;16600;47.444;8.334;2023-06-14T04:29:58;7.15;;;4.97;;
29688;SDS011;16600;47.444;8.334;2023-06-14T04:32:32;9.23;;;4.90;;
29688;SDS011;16600;47.444;8.334;2023-06-14T04:35:05;4.35;;;3.83;;
29688;SDS011;16600;47.444;8.334;2023-06-14T04:37:32;6.55;;;4.30;;
29688;SDS011;16600;47.444;8.334;2023-06-14T04:39:59;6.65;;;4.07;;
29688;SDS011;16600;47.444;8.334;2023-06-14T04:44:58;8.20;;;4.15;;
29688;SDS011;16600;47.444;8.334;2023-06-14T04:47:24;8.32;;;4.05;;
29688;SDS011;16600;47.444;8.334;2023-06-14T04:49:50;14.50;;;4.63;;
29688;SDS011;16600;47.444;8.334;2023-06-14T04:52:20;9.32;;;4.22;;
29688;SDS011;16600;47.444;8.334;2023-06-14T04:54:48;6.90;;;4.22;;
29688;SDS011;16600;47.444;8.334;2023-06-14T04:57:17;11.50;;;4.55;;
29688;SDS011;16600;47.444;8.334;2023-06-14T04:59:48;6.25;;;4.30;;
29688;SDS011;16600;47.444;8.334;2023-06-14T05:02:21;16.65;;;4.45;;
29688;SDS011;16600;47.444;8.334;2023-06-14T05:04:47;4.60;;;4.10;;
29688;SDS011;16600;47.444;8.334;2023-06-14T05:07:13;3.92;;;3.47;;
29688;SDS011;16600;47.444;8.334;2023-06-14T05:09:40;5.47;;;4.15;;
29688;SDS011;16600;47.444;8.334;2023-06-14T05:12:06;6.82;;;6.13;;
29688;SDS011;16600;47.444;8.334;2023-06-14T05:14:35;7.53;;;3.90;;
29688;SDS011;16600;47.444;8.334;2023-06-14T05:17:01;5.78;;;4.18;;
29688;SDS011;16600;47.444;8.334;2023-06-14T05:19:27;4.03;;;3.63;;
29688;SDS011;16600;47.444;8.334;2023-06-14T05:21:53;7.65;;;4.20;;
29688;SDS011;16600;47.444;8.334;2023-06-14T05:24:19;5.95;;;3.72;;
29688;SDS011;16600;47.444;8.334;2023-06-14T05:26:45;5.18;;;3.90;;
29688;SDS011;16600;47.444;8.334;2023-06-14T05:29:10;4.80;;;3.97;;
29688;SDS011;16600;47.444;8.334;2023-06-14T05:31:36;7.35;;;4.95;;
29688;SDS011;16600;47.444;8.334;2023-06-14T05:34:01;4.20;;;3.80;;
29688;SDS011;16600;47.444;8.334;2023-06-14T05:36:27;4.20;;;3.75;;
29688;SDS011;16600;47.444;8.334;2023-06-14T05:38:53;3.72;;;3.40;;
29688;SDS011;16600;47.444;8.334;2023-06-14T05:41:24;3.97;;;3.42;;
29688;SDS011;16600;47.444;8.334;2023-06-14T05:43:50;4.43;;;3.30;;
29688;SDS011;16600;47.444;8.334;2023-06-14T05:46:15;6.72;;;3.10;;
29688;SDS011;16600;47.444;8.334;2023-06-14T05:48:41;4.30;;;3.05;;
29688;SDS011;16600;47.444;8.334;2023-06-14T05:51:06;4.03;;;2.95;;
29688;SDS011;16600;47.444;8.334;2023-06-14T05:53:34;3.75;;;3.20;;
29688;SDS011;16600;47.444;8.334;2023-06-14T05:55:59;4.55;;;3.20;;
29688;SDS011;16600;47.444;8.334;2023-06-14T05:58:25;7.63;;;3.55;;
29688;SDS011;16600;47.444;8.334;2023-06-14T06:00:50;13.93;;;3.60;;
29688;SDS011;16600;47.444;8.334;2023-06-14T06:03:18;4.80;;;3.15;;
29688;SDS011;16600;47.444;8.334;2023-06-14T06:05:44;3.33;;;2.70;;
29688;SDS011;16600;47.444;8.334;2023-06-14T06:08:10;8.90;;;3.08;;
29688;SDS011;16600;47.444;8.334;2023-06-14T06:10:36;6.30;;;3.00;;
29688;SDS011;16600;47.444;8.334;2023-06-14T06:13:01;4.32;;;3.35;;
29688;SDS011;16600;47.444;8.334;2023-06-14T06:15:27;5.63;;;3.00;;
29688;SDS011;16600;47.444;8.334;2023-06-14T06:17:52;6.60;;;2.88;;
29688;SDS011;16600;47.444;8.334;2023-06-14T06:20:18;3.33;;;2.95;;
29688;SDS011;16600;47.444;8.334;2023-06-14T06:22:43;4.05;;;3.00;;
29688;SDS011;16600;47.444;8.334;2023-06-14T06:25:09;6.43;;;3.08;;
29688;SDS011;16600;47.444;8.334;2023-06-14T06:27:34;5.43;;;3.40;;
29688;SDS011;16600;47.444;8.334;2023-06-14T06:30:03;3.53;;;2.97;;
29688;SDS011;16600;47.444;8.334;2023-06-14T06:32:29;3.92;;;3.35;;
29688;SDS011;16600;47.444;8.334;2023-06-14T06:34:54;5.38;;;3.03;;
29688;SDS011;16600;47.444;8.334;2023-06-14T06:37:20;4.95;;;3.25;;
29688;SDS011;16600;47.444;8.334;2023-06-14T06:39:45;7.47;;;2.90;;
29688;SDS011;16600;47.444;8.334;2023-06-14T06:42:12;2.72;;;2.50;;
29688;SDS011;16600;47.444;8.334;2023-06-14T06:44:41;4.07;;;3.20;;
29688;SDS011;16600;47.444;8.334;2023-06-14T06:47:06;4.45;;;3.20;;
29688;SDS011;16600;47.444;8.334;2023-06-14T06:49:32;3.35;;;2.92;;
29688;SDS011;16600;47.444;8.334;2023-06-14T06:52:04;3.55;;;3.13;;
29688;SDS011;16600;47.444;8.334;2023-06-14T06:54:30;4.70;;;3.17;;
29688;SDS011;16600;47.444;8.334;2023-06-14T06:56:56;7.78;;;3.33;;
29688;SDS011;16600;47.444;8.334;2023-06-14T06:59:21;3.70;;;2.85;;
29688;SDS011;16600;47.444;8.334;2023-06-14T07:01:47;7.63;;;3.05;;
29688;SDS011;16600;47.444;8.334;2023-06-14T07:04:13;4.82;;;2.78;;
29688;SDS011;16600;47.444;8.334;2023-06-14T07:06:38;4.63;;;2.90;;
29688;SDS011;16600;47.444;8.334;2023-06-14T07:09:04;6.82;;;3.00;;
29688;SDS011;16600;47.444;8.334;2023-06-14T07:11:33;7.57;;;3.20;;
29688;SDS011;16600;47.444;8.334;2023-06-14T07:13:58;6.05;;;2.97;;
29688;SDS011;16600;47.444;8.334;2023-06-14T07:16:24;3.45;;;3.15;;
29688;SDS011;16600;47.444;8.334;2023-06-14T07:18:51;3.35;;;3.05;;
29688;SDS011;16600;47.444;8.334;2023-06-14T07:21:16;5.35;;;3.00;;
29688;SDS011;16600;47.444;8.334;2023-06-14T07:23:42;3.30;;;2.95;;
29688;SDS011;16600;47.444;8.334;2023-06-14T07:26:07;3.97;;;3.03;;
29688;SDS011;16600;47.444;8.334;2023-06-14T07:28:33;6.65;;;3.30;;
29688;SDS011;16600;47.444;8.334;2023-06-14T07:30:58;4.57;;;3.17;;
29688;SDS011;16600;47.444;8.334;2023-06-14T07:33:24;4.93;;;3.45;;
29688;SDS011;16600;47.444;8.334;2023-06-14T07:35:49;6.03;;;3.15;;
29688;SDS011;16600;47.444;8.334;2023-06-14T07:38:15;4.07;;;3.22;;
29688;SDS011;16600;47.444;8.334;2023-06-14T07:40:41;4.45;;;3.28;;
29688;SDS011;16600;47.444;8.334;2023-06-14T07:43:06;4.80;;;3.17;;
29688;SDS011;16600;47.444;8.334;2023-06-14T07:45:32;4.55;;;3.05;;
29688;SDS011;16600;47.444;8.334;2023-06-14T07:47:57;4.72;;;3.38;;
29688;SDS011;16600;47.444;8.334;2023-06-14T07:50:23;3.42;;;3.13;;
29688;SDS011;16600;47.444;8.334;2023-06-14T07:52:48;7.10;;;3.67;;
29688;SDS011;16600;47.444;8.334;2023-06-14T07:55:14;4.43;;;2.80;;
29688;SDS011;16600;47.444;8.334;2023-06-14T07:57:40;4.53;;;3.40;;
29688;SDS011;16600;47.444;8.334;2023-06-14T08:00:06;4.38;;;3.35;;
29688;SDS011;16600;47.444;8.334;2023-06-14T08:02:37;4.68;;;3.40;;
29688;SDS011;16600;47.444;8.334;2023-06-14T08:05:02;3.53;;;3.05;;
29688;SDS011;16600;47.444;8.334;2023-06-14T08:07:28;4.63;;;3.40;;
29688;SDS011;16600;47.444;8.334;2023-06-14T08:09:54;4.45;;;3.20;;
29688;SDS011;16600;47.444;8.334;2023-06-14T08:12:19;4.13;;;3.15;;
29688;SDS011;16600;47.444;8.334;2023-06-14T08:14:44;4.53;;;3.35;;
29688;SDS011;16600;47.444;8.334;2023-06-14T08:17:10;6.20;;;3.53;;
29688;SDS011;16600;47.444;8.334;2023-06-14T08:19:36;4.63;;;2.97;;
29688;SDS011;16600;47.444;8.334;2023-06-14T08:22:02;3.70;;;3.28;;
29688;SDS011;16600;47.444;8.334;2023-06-14T08:24:29;11.07;;;3.35;;
29688;SDS011;16600;47.444;8.334;2023-06-14T08:26:54;12.43;;;3.38;;
29688;SDS011;16600;47.444;8.334;2023-06-14T08:29:21;5.32;;;3.28;;
29688;SDS011;16600;47.444;8.334;2023-06-14T08:31:47;4.78;;;3.50;;
29688;SDS011;16600;47.444;8.334;2023-06-14T08:34:13;3.47;;;3.17;;
29688;SDS011;16600;47.444;8.334;2023-06-14T08:36:38;4.80;;;3.45;;
29688;SDS011;16600;47.444;8.334;2023-06-14T08:39:04;4.03;;;3.20;;
29688;SDS011;16600;47.444;8.334;2023-06-14T08:41:29;4.47;;;3.17;;
29688;SDS011;16600;47.444;8.334;2023-06-14T08:43:55;4.22;;;3.10;;
29688;SDS011;16600;47.444;8.334;2023-06-14T08:46:21;4.93;;;3.00;;
29688;SDS011;16600;47.444;8.334;2023-06-14T08:48:52;7.55;;;3.70;;
29688;SDS011;16600;47.444;8.334;2023-06-14T08:51:22;6.05;;;3.60;;
29688;SDS011;16600;47.444;8.334;2023-06-14T08:53:52;4.03;;;3.53;;
29688;SDS011;16600;47.444;8.334;2023-06-14T08:56:18;6.18;;;3.55;;
29688;SDS011;16600;47.444;8.334;2023-06-14T08:58:45;3.40;;;3.05;;
29688;SDS011;16600;47.444;8.334;2023-06-14T09:01:13;4.63;;;3.33;;
29688;SDS011;16600;47.444;8.334;2023-06-14T09:03:40;8.68;;;3.47;;
29688;SDS011;16600;47.444;8.334;2023-06-14T09:06:07;3.70;;;3.13;;
29688;SDS011;16600;47.444;8.334;2023-06-14T09:08:34;5.70;;;3.40;;
29688;SDS011;16600;47.444;8.334;2023-06-14T09:11:03;3.83;;;3.10;;
29688;SDS011;16600;47.444;8.334;2023-06-14T09:13:28;7.97;;;3.70;;
29688;SDS011;16600;47.444;8.334;2023-06-14T09:15:54;4.40;;;3.40;;
29688;SDS011;16600;47.444;8.334;2023-06-14T09:18:19;4.53;;;2.72;;
29688;SDS011;16600;47.444;8.334;2023-06-14T09:20:45;6.97;;;3.40;;
29688;SDS011;16600;47.444;8.334;2023-06-14T09:23:12;3.58;;;2.97;;
29688;SDS011;16600;47.444;8.334;2023-06-14T09:25:41;5.53;;;3.50;;
29688;SDS011;16600;47.444;8.334;2023-06-14T09:28:07;6.68;;;3.53;;
29688;SDS011;16600;47.444;8.334;2023-06-14T09:30:36;4.55;;;3.67;;
29688;SDS011;16600;47.444;8.334;2023-06-14T09:33:02;4.80;;;3.50;;
29688;SDS011;16600;47.444;8.334;2023-06-14T09:35:27;7.72;;;3.83;;
29688;SDS011;16600;47.444;8.334;2023-06-14T09:37:56;6.18;;;3.58;;
29688;SDS011;16600;47.444;8.334;2023-06-14T09:40:22;5.20;;;3.45;;
29688;SDS011;16600;47.444;8.334;2023-06-14T09:42:47;5.28;;;3.50;;
29688;SDS011;16600;47.444;8.334;2023-06-14T09:45:13;5.53;;;3.20;;
29688;SDS011;16600;47.444;8.334;2023-06-14T09:47:39;5.25;;;3.13;;
29688;SDS011;16600;47.444;8.334;2023-06-14T09:50:05;4.50;;;3.72;;
29688;SDS011;16600;47.444;8.334;2023-06-14T09:52:31;4.55;;;3.60;;
29688;SDS011;16600;47.444;8.334;2023-06-14T09:54:57;4.03;;;3.63;;
29688;SDS011;16600;47.444;8.334;2023-06-14T09:57:24;7.28;;;3.45;;
29688;SDS011;16600;47.444;8.334;2023-06-14T09:59:56;6.40;;;3.60;;
29688;SDS011;16600;47.444;8.334;2023-06-14T10:03:11;4.20;;;3.55;;
29688;SDS011;16600;47.444;8.334;2023-06-14T10:05:37;6.25;;;3.63;;
29688;SDS011;16600;47.444;8.334;2023-06-14T10:08:07;6.35;;;3.60;;
29688;SDS011;16600;47.444;8.334;2023-06-14T10:10:34;7.30;;;3.40;;
29688;SDS011;16600;47.444;8.334;2023-06-14T10:12:59;5.60;;;3.65;;
29688;SDS011;16600;47.444;8.334;2023-06-14T10:17:56;4.38;;;3.55;;
29688;SDS011;16600;47.444;8.334;2023-06-14T10:22:58;10.00;;;4.00;;
29688;SDS011;16600;47.444;8.334;2023-06-14T10:27:51;4.70;;;3.37;;
29688;SDS011;16600;47.444;8.334;2023-06-14T10:30:17;7.43;;;3.58;;
29688;SDS011;16600;47.444;8.334;2023-06-14T10:33:08;7.45;;;4.03;;
29688;SDS011;16600;47.444;8.334;2023-06-14T10:35:35;5.15;;;3.47;;
29688;SDS011;16600;47.444;8.334;2023-06-14T10:38:07;7.03;;;3.58;;
29688;SDS011;16600;47.444;8.334;2023-06-14T10:40:33;4.03;;;3.55;;
29688;SDS011;16600;47.444;8.334;2023-06-14T10:42:59;13.05;;;3.97;;
29688;SDS011;16600;47.444;8.334;2023-06-14T10:45:24;6.35;;;3.67;;
29688;SDS011;16600;47.444;8.334;2023-06-14T10:47:50;4.30;;;3.67;;
29688;SDS011;16600;47.444;8.334;2023-06-14T10:50:22;4.15;;;2.97;;
29688;SDS011;16600;47.444;8.334;2023-06-14T10:52:52;5.28;;;3.20;;
29688;SDS011;16600;47.444;8.334;2023-06-14T10:55:18;9.35;;;3.60;;
29688;SDS011;16600;47.444;8.334;2023-06-14T11:00:11;4.22;;;3.38;;
29688;SDS011;16600;47.444;8.334;2023-06-14T11:05:04;6.38;;;4.10;;
29688;SDS011;16600;47.444;8.334;2023-06-14T11:12:41;9.65;;;4.43;;
29688;SDS011;16600;47.444;8.334;2023-06-14T11:15:07;5.28;;;3.72;;
29688;SDS011;16600;47.444;8.334;2023-06-14T11:17:33;4.30;;;3.65;;
29688;SDS011;16600;47.444;8.334;2023-06-14T11:20:11;3.88;;;3.45;;
29688;SDS011;16600;47.444;8.334;2023-06-14T11:22:44;17.70;;;4.13;;
29688;SDS011;16600;47.444;8.334;2023-06-14T11:25:10;5.68;;;4.20;;
29688;SDS011;16600;47.444;8.334;2023-06-14T11:27:35;4.60;;;3.72;;
29688;SDS011;16600;47.444;8.334;2023-06-14T11:30:01;5.80;;;3.50;;
29688;SDS011;16600;47.444;8.334;2023-06-14T11:32:27;5.30;;;3.55;;
29688;SDS011;16600;47.444;8.334;2023-06-14T11:34:52;5.13;;;3.72;;
29688;SDS011;16600;47.444;8.334;2023-06-14T11:37:18;5.55;;;3.67;;
29688;SDS011;16600;47.444;8.334;2023-06-14T11:39:44;6.10;;;3.88;;
29688;SDS011;16600;47.444;8.334;2023-06-14T11:42:14;6.38;;;3.53;;
29688;SDS011;16600;47.444;8.334;2023-06-14T11:44:40;5.68;;;4.10;;
29688;SDS011;16600;47.444;8.334;2023-06-14T11:47:06;30.85;;;5.18;;
29688;SDS011;16600;47.444;8.334;2023-06-14T11:49:35;6.90;;;3.97;;
29688;SDS011;16600;47.444;8.334;2023-06-14T11:52:00;8.32;;;4.18;;
29688;SDS011;16600;47.444;8.334;2023-06-14T11:54:26;3.88;;;3.58;;
29688;SDS011;16600;47.444;8.334;2023-06-14T11:56:51;10.13;;;3.80;;
29688;SDS011;16600;47.444;8.334;2023-06-14T11:59:17;4.53;;;3.60;;
29688;SDS011;16600;47.444;8.334;2023-06-14T12:01:43;4.78;;;4.20;;
29688;SDS011;16600;47.444;8.334;2023-06-14T12:04:08;6.10;;;3.88;;
29688;SDS011;16600;47.444;8.334;2023-06-14T12:06:34;4.57;;;3.60;;
29688;SDS011;16600;47.444;8.334;2023-06-14T12:09:05;5.72;;;4.20;;
29688;SDS011;16600;47.444;8.334;2023-06-14T12:11:38;7.97;;;3.72;;
29688;SDS011;16600;47.444;8.334;2023-06-14T12:14:04;5.97;;;2.75;;
29688;SDS011;16600;47.444;8.334;2023-06-14T12:16:31;6.32;;;3.78;;
29688;SDS011;16600;47.444;8.334;2023-06-14T12:19:00;5.45;;;3.40;;
29688;SDS011;16600;47.444;8.334;2023-06-14T12:21:26;5.00;;;3.22;;
29688;SDS011;16600;47.444;8.334;2023-06-14T12:23:53;3.78;;;3.10;;
29688;SDS011;16600;47.444;8.334;2023-06-14T12:26:19;5.25;;;3.67;;
29688;SDS011;16600;47.444;8.334;2023-06-14T12:28:45;6.40;;;3.70;;
29688;SDS011;16600;47.444;8.334;2023-06-14T12:31:11;5.80;;;3.10;;
29688;SDS011;16600;47.444;8.334;2023-06-14T12:33:38;7.70;;;3.38;;
29688;SDS011;16600;47.444;8.334;2023-06-14T12:36:04;6.93;;;3.60;;
29688;SDS011;16600;47.444;8.334;2023-06-14T12:38:30;5.00;;;3.35;;
29688;SDS011;16600;47.444;8.334;2023-06-14T12:40:56;6.57;;;3.42;;
29688;SDS011;16600;47.444;8.334;2023-06-14T12:43:23;5.55;;;3.22;;
29688;SDS011;16600;47.444;8.334;2023-06-14T12:45:49;5.30;;;3.65;;
29688;SDS011;16600;47.444;8.334;2023-06-14T12:48:14;4.93;;;3.45;;
29688;SDS011;16600;47.444;8.334;2023-06-14T12:50:40;12.18;;;4.22;;
29688;SDS011;16600;47.444;8.334;2023-06-14T12:53:06;4.55;;;3.63;;
29688;SDS011;16600;47.444;8.334;2023-06-14T12:55:32;5.25;;;3.97;;
29688;SDS011;16600;47.444;8.334;2023-06-14T12:57:57;5.53;;;3.47;;
29688;SDS011;16600;47.444;8.334;2023-06-14T13:00:23;4.07;;;3.67;;
29688;SDS011;16600;47.444;8.334;2023-06-14T13:02:51;5.18;;;3.63;;
29688;SDS011;16600;47.444;8.334;2023-06-14T13:05:17;4.88;;;3.80;;
29688;SDS011;16600;47.444;8.334;2023-06-14T13:07:42;17.10;;;3.22;;
29688;SDS011;16600;47.444;8.334;2023-06-14T13:10:08;7.40;;;3.25;;
29688;SDS011;16600;47.444;8.334;2023-06-14T13:12:34;4.18;;;3.33;;
29688;SDS011;16600;47.444;8.334;2023-06-14T13:14:59;5.65;;;4.25;;
29688;SDS011;16600;47.444;8.334;2023-06-14T13:17:25;5.32;;;3.28;;
29688;SDS011;16600;47.444;8.334;2023-06-14T13:19:51;4.25;;;3.47;;
29688;SDS011;16600;47.444;8.334;2023-06-14T13:22:17;4.20;;;3.58;;
29688;SDS011;16600;47.444;8.334;2023-06-14T13:24:42;8.10;;;3.97;;
29688;SDS011;16600;47.444;8.334;2023-06-14T13:27:08;7.85;;;3.75;;
29688;SDS011;16600;47.444;8.334;2023-06-14T13:29:34;5.57;;;3.60;;
29688;SDS011;16600;47.444;8.334;2023-06-14T13:32:01;5.10;;;3.75;;
29688;SDS011;16600;47.444;8.334;2023-06-14T13:34:27;6.07;;;3.83;;
29688;SDS011;16600;47.444;8.334;2023-06-14T13:36:52;6.28;;;4.05;;
29688;SDS011;16600;47.444;8.334;2023-06-14T13:39:18;6.25;;;3.22;;
29688;SDS011;16600;47.444;8.334;2023-06-14T13:41:44;6.10;;;3.10;;
29688;SDS011;16600;47.444;8.334;2023-06-14T13:44:09;6.55;;;3.40;;
29688;SDS011;16600;47.444;8.334;2023-06-14T13:46:39;4.88;;;3.70;;
29688;SDS011;16600;47.444;8.334;2023-06-14T13:49:04;3.80;;;3.17;;
29688;SDS011;16600;47.444;8.334;2023-06-14T13:51:30;5.50;;;3.30;;
29688;SDS011;16600;47.444;8.334;2023-06-14T13:53:56;5.93;;;3.83;;
29688;SDS011;16600;47.444;8.334;2023-06-14T13:56:21;5.15;;;3.80;;
29688;SDS011;16600;47.444;8.334;2023-06-14T13:58:50;6.63;;;3.38;;
29688;SDS011;16600;47.444;8.334;2023-06-14T14:01:16;10.45;;;3.63;;
29688;SDS011;16600;47.444;8.334;2023-06-14T14:03:43;6.85;;;3.88;;
29688;SDS011;16600;47.444;8.334;2023-06-14T14:06:10;4.07;;;3.75;;
29688;SDS011;16600;47.444;8.334;2023-06-14T14:08:36;5.03;;;3.78;;
29688;SDS011;16600;47.444;8.334;2023-06-14T14:11:01;5.63;;;3.92;;
29688;SDS011;16600;47.444;8.334;2023-06-14T14:13:27;4.10;;;3.70;;
29688;SDS011;16600;47.444;8.334;2023-06-14T14:15:52;6.85;;;3.33;;
29688;SDS011;16600;47.444;8.334;2023-06-14T14:18:19;5.32;;;3.45;;
29688;SDS011;16600;47.444;8.334;2023-06-14T14:20:46;5.50;;;3.60;;
29688;SDS011;16600;47.444;8.334;2023-06-14T14:23:12;8.65;;;3.38;;
29688;SDS011;16600;47.444;8.334;2023-06-14T14:25:37;7.95;;;4.00;;
29688;SDS011;16600;47.444;8.334;2023-06-14T14:28:03;9.20;;;3.60;;
29688;SDS011;16600;47.444;8.334;2023-06-14T14:30:29;7.65;;;3.58;;
29688;SDS011;16600;47.444;8.334;2023-06-14T14:32:54;4.13;;;3.35;;
29688;SDS011;16600;47.444;8.334;2023-06-14T14:35:20;5.55;;;3.45;;
29688;SDS011;16600;47.444;8.334;2023-06-14T14:37:47;5.50;;;3.90;;
29688;SDS011;16600;47.444;8.334;2023-06-14T14:40:13;5.70;;;3.33;;
29688;SDS011;16600;47.444;8.334;2023-06-14T14:42:39;4.30;;;3.17;;
29688;SDS011;16600;47.444;8.334;2023-06-14T14:45:04;6.88;;;3.63;;
29688;SDS011;16600;47.444;8.334;2023-06-14T14:47:30;4.57;;;3.60;;
29688;SDS011;16600;47.444;8.334;2023-06-14T14:49:56;11.85;;;4.07;;
29688;SDS011;16600;47.444;8.334;2023-06-14T14:52:21;7.82;;;4.03;;
29688;SDS011;16600;47.444;8.334;2023-06-14T14:54:47;4.45;;;3.33;;
29688;SDS011;16600;47.444;8.334;2023-06-14T14:57:12;6.65;;;3.88;;
29688;SDS011;16600;47.444;8.334;2023-06-14T14:59:38;4.25;;;3.58;;
29688;SDS011;16600;47.444;8.334;2023-06-14T15:02:03;5.05;;;3.60;;
29688;SDS011;16600;47.444;8.334;2023-06-14T15:04:29;4.45;;;3.60;;
29688;SDS011;16600;47.444;8.334;2023-06-14T15:06:55;4.25;;;3.85;;
29688;SDS011;16600;47.444;8.334;2023-06-14T15:09:20;4.45;;;3.40;;
29688;SDS011;16600;47.444;8.334;2023-06-14T15:11:46;9.98;;;3.70;;
29688;SDS011;16600;47.444;8.334;2023-06-14T15:14:11;8.60;;;3.63;;
29688;SDS011;16600;47.444;8.334;2023-06-14T15:16:37;4.95;;;3.65;;
29688;SDS011;16600;47.444;8.334;2023-06-14T15:19:03;16.88;;;3.60;;
29688;SDS011;16600;47.444;8.334;2023-06-14T15:21:28;5.20;;;3.60;;
29688;SDS011;16600;47.444;8.334;2023-06-14T15:23:54;3.78;;;3.47;;